Time;durP1;ratioP1;P1;durP2;ratioP2;P2;SDS_P1;SDS_P2;PMS_P1;PMS_P2;Temp;Humidity;BMP_temperature;BMP_pressure;BME280_temperature;BME280_humidity;BME280_pressure;Samples;Min_cycle;Max_cycle;Signal;HPM_P1;HPM_P2
2024/01/10 00:02:00;;;;;;;23.27;19.55;;;-3.80;99.90;;;;;;5071014;28;20040;-67
2024/01/10 00:04:26;;;;;;;25.58;19.77;;;-3.80;99.90;;;;;;5071180;28;20424;-67
2024/01/10 00:06:51;;;;;;;27.50;21.13;;;-3.80;99.90;;;;;;5071054;28;20040;-67
2024/01/10 00:09:17;;;;;;;25.52;20.58;;;-3.80;99.90;;;;;;5071639;28;20478;-67
2024/01/10 00:11:43;;;;;;;27.13;20.30;;;-3.90;99.90;;;;;;5071938;28;20439;-67
2024/01/10 00:14:09;;;;;;;26.60;19.88;;;-3.90;99.90;;;;;;5069573;28;20359;-67
2024/01/10 00:16:35;;;;;;;22.67;18.13;;;-3.90;99.90;;;;;;5069927;28;20452;-67
2024/01/10 00:19:01;;;;;;;22.35;18.13;;;-3.90;99.90;;;;;;5070701;28;20045;-68
2024/01/10 00:21:27;;;;;;;21.63;17.65;;;-3.90;99.90;;;;;;5071777;28;20060;-68
2024/01/10 00:23:52;;;;;;;23.25;17.67;;;-3.90;99.90;;;;;;5056718;28;20059;-68
2024/01/10 00:26:18;;;;;;;23.05;17.30;;;-4.00;99.90;;;;;;5070821;28;20466;-67
2024/01/10 00:28:45;;;;;;;22.48;17.70;;;-4.00;99.90;;;;;;5070531;28;20043;-67
2024/01/10 00:31:12;;;;;;;22.77;16.73;;;-4.10;99.90;;;;;;5070185;28;20389;-68
2024/01/10 00:33:38;;;;;;;21.88;17.63;;;-4.10;99.90;;;;;;5069607;28;20051;-67
2024/01/10 00:36:04;;;;;;;21.88;17.02;;;-4.10;99.90;;;;;;5070946;28;20147;-68
2024/01/10 00:38:29;;;;;;;21.98;17.20;;;-4.10;99.90;;;;;;5069394;28;20123;-67
2024/01/10 00:40:56;;;;;;;21.50;17.20;;;-4.00;99.90;;;;;;5069529;28;20059;-68
2024/01/10 00:43:22;;;;;;;24.13;18.40;;;-4.10;99.90;;;;;;5068614;28;20060;-67
2024/01/10 00:45:47;;;;;;;23.90;18.23;;;-4.00;99.90;;;;;;5065255;28;20066;-67
2024/01/10 00:48:13;;;;;;;21.75;17.52;;;-4.10;99.90;;;;;;5069456;28;20074;-67
2024/01/10 00:50:39;;;;;;;21.40;16.45;;;-4.10;99.90;;;;;;5057091;28;20036;-67
2024/01/10 00:53:04;;;;;;;21.60;17.05;;;-4.10;99.90;;;;;;5070614;28;20033;-67
2024/01/10 00:55:30;;;;;;;21.83;17.42;;;-4.10;99.90;;;;;;5071171;28;20501;-67
2024/01/10 00:57:56;;;;;;;25.02;18.20;;;-4.20;99.90;;;;;;5069724;28;20071;-68
2024/01/10 01:00:22;;;;;;;22.70;17.58;;;-4.20;99.90;;;;;;5069699;28;20489;-69
2024/01/10 01:02:47;;;;;;;23.33;18.60;;;-4.20;99.90;;;;;;5070718;28;20051;-67
2024/01/10 01:05:13;;;;;;;22.08;17.50;;;-4.30;99.90;;;;;;5073494;28;20049;-67
2024/01/10 01:07:39;;;;;;;23.77;18.48;;;-4.30;99.90;;;;;;5075083;28;20409;-67
2024/01/10 01:10:05;;;;;;;24.58;19.20;;;-4.40;99.90;;;;;;5071025;28;20119;-68
2024/01/10 01:12:31;;;;;;;23.42;18.95;;;-4.40;99.90;;;;;;5062235;28;20068;-68
2024/01/10 01:14:57;;;;;;;26.48;19.60;;;-4.40;99.90;;;;;;5056912;28;20083;-71
2024/01/10 01:17:23;;;;;;;26.98;20.58;;;-4.40;99.90;;;;;;5063906;28;20109;-67
2024/01/10 01:19:48;;;;;;;30.10;22.17;;;-4.40;99.90;;;;;;5065946;28;20421;-67
2024/01/10 01:22:14;;;;;;;27.17;20.73;;;-4.40;99.90;;;;;;5068022;28;20326;-67
2024/01/10 01:24:40;;;;;;;28.80;21.95;;;-4.50;99.90;;;;;;5089120;28;20420;-67
2024/01/10 01:27:05;;;;;;;28.80;22.20;;;-4.50;99.90;;;;;;5074031;28;20534;-67
2024/01/10 01:29:31;;;;;;;33.17;25.08;;;-4.50;99.90;;;;;;5064460;28;20435;-67
2024/01/10 01:31:57;;;;;;;32.40;25.17;;;-4.50;99.90;;;;;;5074277;28;20193;-67
2024/01/10 01:34:22;;;;;;;32.53;26.08;;;-4.50;99.90;;;;;;5073646;28;20124;-67
2024/01/10 01:36:51;;;;;;;33.70;26.70;;;-4.50;99.90;;;;;;5073771;28;20115;-68
2024/01/10 01:39:16;;;;;;;35.90;28.02;;;-4.50;99.90;;;;;;5073559;28;20045;-68
2024/01/10 01:41:42;;;;;;;35.90;26.25;;;-4.50;99.90;;;;;;5073479;28;20033;-68
2024/01/10 01:44:08;;;;;;;38.15;28.35;;;-4.50;99.90;;;;;;5073843;28;20048;-68
2024/01/10 01:46:34;;;;;;;37.22;29.27;;;-4.50;99.90;;;;;;5059861;28;20037;-68
2024/01/10 01:49:00;;;;;;;39.85;29.05;;;-4.60;99.90;;;;;;5072156;28;20197;-68
2024/01/10 01:51:28;;;;;;;36.85;28.30;;;-4.50;99.90;;;;;;5073433;28;20043;-68
2024/01/10 01:53:55;;;;;;;38.35;29.50;;;-4.50;99.90;;;;;;5073382;28;20375;-68
2024/01/10 01:56:20;;;;;;;39.78;29.88;;;-4.50;99.90;;;;;;5073425;28;20036;-68
2024/01/10 01:58:47;;;;;;;38.42;29.00;;;-4.50;99.90;;;;;;5073922;28;20044;-67
2024/01/10 02:01:13;;;;;;;37.30;29.85;;;-4.50;99.90;;;;;;5071565;28;20044;-68
2024/01/10 02:03:39;;;;;;;38.53;29.15;;;-4.50;99.90;;;;;;5072451;28;20055;-68
2024/01/10 02:06:05;;;;;;;37.15;29.02;;;-4.50;99.90;;;;;;5072840;28;20036;-72
2024/01/10 02:08:35;;;;;;;39.13;28.65;;;-4.50;99.90;;;;;;5073507;28;20503;-68
2024/01/10 02:11:02;;;;;;;36.50;27.70;;;-4.50;99.90;;;;;;5073530;28;20036;-68
2024/01/10 02:13:28;;;;;;;36.80;27.95;;;-4.50;99.90;;;;;;5072828;28;20047;-68
2024/01/10 02:15:54;;;;;;;34.55;26.58;;;-4.60;99.90;;;;;;5072869;28;20070;-67
2024/01/10 02:18:20;;;;;;;35.50;27.63;;;-4.60;99.90;;;;;;5072384;28;20048;-68
2024/01/10 02:20:46;;;;;;;37.70;28.35;;;-4.50;99.90;;;;;;5059444;28;20032;-68
2024/01/10 02:23:12;;;;;;;40.05;29.00;;;-4.30;99.90;;;;;;5072561;28;20108;-68
2024/01/10 02:25:39;;;;;;;35.88;28.77;;;-4.60;99.90;;;;;;5073052;28;20043;-68
2024/01/10 02:28:05;;;;;;;36.60;27.83;;;-4.60;99.90;;;;;;5073080;28;20040;-68
2024/01/10 02:30:31;;;;;;;35.10;26.85;;;-4.60;99.90;;;;;;5071054;28;20131;-68
2024/01/10 02:32:57;;;;;;;37.95;28.35;;;-4.60;99.90;;;;;;5073004;28;20128;-68
2024/01/10 02:35:22;;;;;;;39.53;28.77;;;-4.60;99.90;;;;;;5072703;28;20043;-68
2024/01/10 02:37:52;;;;;;;36.45;26.50;;;-4.60;99.90;;;;;;5072658;28;20063;-68
2024/01/10 02:40:17;;;;;;;37.40;28.15;;;-4.50;99.90;;;;;;5063003;28;20051;-68
2024/01/10 02:42:43;;;;;;;38.90;29.38;;;-4.60;99.90;;;;;;5072375;28;20049;-68
2024/01/10 02:45:09;;;;;;;39.45;28.73;;;-4.60;99.90;;;;;;5072962;28;20040;-71
2024/01/10 02:47:37;;;;;;;35.80;27.90;;;-4.50;99.90;;;;;;5072300;28;20194;-68
2024/01/10 02:50:03;;;;;;;40.25;29.63;;;-4.60;99.90;;;;;;5071599;28;20044;-68
2024/01/10 02:52:29;;;;;;;38.95;28.90;;;-4.60;99.90;;;;;;5071156;28;20052;-68
2024/01/10 02:54:55;;;;;;;37.78;29.15;;;-4.60;99.90;;;;;;5071972;28;20625;-68
2024/01/10 02:57:20;;;;;;;36.13;27.05;;;-4.60;99.90;;;;;;5071632;28;20399;-68
2024/01/10 02:59:46;;;;;;;40.53;29.95;;;-4.50;99.90;;;;;;5071222;28;20072;-68
2024/01/10 03:02:12;;;;;;;38.28;29.48;;;-4.60;99.90;;;;;;5071149;28;20047;-68
2024/01/10 03:04:37;;;;;;;37.92;27.70;;;-4.50;99.90;;;;;;5071335;28;20045;-68
2024/01/10 03:07:03;;;;;;;37.85;29.55;;;-4.60;99.90;;;;;;5072385;28;20036;-68
2024/01/10 03:09:29;;;;;;;37.88;28.83;;;-4.60;99.90;;;;;;5071537;28;20044;-68
2024/01/10 03:11:54;;;;;;;38.53;28.33;;;-4.60;99.90;;;;;;5072206;28;20047;-68
2024/01/10 03:14:20;;;;;;;37.55;28.95;;;-4.60;99.90;;;;;;5071337;28;20531;-68
2024/01/10 03:16:46;;;;;;;40.17;29.92;;;-4.60;99.90;;;;;;5071740;28;20373;-68
2024/01/10 03:19:12;;;;;;;38.60;29.30;;;-4.60;99.90;;;;;;5065651;28;20048;-68
2024/01/10 03:21:37;;;;;;;36.97;28.20;;;-4.60;99.90;;;;;;5060924;28;20193;-68
2024/01/10 03:24:03;;;;;;;37.40;27.98;;;-4.70;99.90;;;;;;5049940;28;20094;-68
2024/01/10 03:26:30;;;;;;;37.58;26.75;;;-4.60;99.90;;;;;;5058143;28;20048;-68
2024/01/10 03:28:56;;;;;;;35.22;27.67;;;-4.10;99.90;;;;;;5058765;28;20045;-68
2024/01/10 03:31:22;;;;;;;36.25;27.98;;;-4.70;99.90;;;;;;5051539;28;20491;-68
2024/01/10 03:33:48;;;;;;;40.95;30.23;;;-4.70;99.90;;;;;;5056440;28;20040;-67
2024/01/10 03:36:16;;;;;;;37.65;28.75;;;-4.70;99.90;;;;;;5060543;28;20041;-67
2024/01/10 03:38:43;;;;;;;40.85;29.02;;;-4.80;99.90;;;;;;5068732;28;20040;-67
2024/01/10 03:41:17;;;;;;;40.45;27.63;;;-4.70;99.90;;;;;;5071534;28;20036;-67
2024/01/10 03:43:43;;;;;;;36.75;29.55;;;-4.70;99.90;;;;;;5071357;28;20115;-68
2024/01/10 03:46:10;;;;;;;38.90;29.45;;;-4.70;99.90;;;;;;5071124;28;20048;-68
2024/01/10 03:48:36;;;;;;;38.03;28.75;;;-4.70;99.90;;;;;;5071121;28;20151;-67
2024/01/10 03:51:03;;;;;;;41.83;29.55;;;-4.70;99.90;;;;;;5071880;28;20389;-67
2024/01/10 03:53:30;;;;;;;39.38;29.58;;;-4.70;99.90;;;;;;5070532;28;20435;-67
2024/01/10 03:55:55;;;;;;;38.70;29.48;;;-4.70;99.90;;;;;;5070658;28;20461;-67
2024/01/10 03:58:21;;;;;;;40.63;30.05;;;-4.70;99.90;;;;;;5069794;28;20052;-70
2024/01/10 04:00:47;;;;;;;38.22;29.05;;;-4.70;99.90;;;;;;5071547;28;20041;-67
2024/01/10 04:03:13;;;;;;;37.35;28.45;;;-4.70;99.90;;;;;;5071641;28;20124;-66
2024/01/10 04:05:38;;;;;;;38.42;28.83;;;-4.70;99.90;;;;;;5069431;28;20040;-67
2024/01/10 04:08:05;;;;;;;36.25;27.63;;;-4.70;99.90;;;;;;5071216;28;20409;-67
2024/01/10 04:10:30;;;;;;;37.95;28.73;;;-4.70;99.90;;;;;;5069588;28;20094;-66
2024/01/10 04:12:56;;;;;;;38.65;27.95;;;-4.70;99.90;;;;;;5071529;28;20413;-66
2024/01/10 04:15:22;;;;;;;37.17;28.38;;;-4.70;99.90;;;;;;5087301;28;20148;-66
2024/01/10 04:17:48;;;;;;;37.35;28.75;;;-4.70;99.90;;;;;;5069755;28;20405;-68
2024/01/10 04:20:13;;;;;;;37.13;28.17;;;-4.70;99.90;;;;;;5057955;28;20045;-67
2024/01/10 04:22:39;;;;;;;37.28;28.38;;;-4.70;99.90;;;;;;5069256;28;20120;-67
2024/01/10 04:25:07;;;;;;;37.85;29.70;;;-4.70;99.90;;;;;;5053585;28;20051;-67
2024/01/10 04:27:33;;;;;;;38.97;29.42;;;-4.80;99.90;;;;;;5063041;28;20076;-67
2024/01/10 04:29:58;;;;;;;37.65;28.55;;;-4.80;99.90;;;;;;5056736;28;20037;-67
2024/01/10 04:32:24;;;;;;;37.75;29.05;;;-4.80;99.90;;;;;;5070969;28;20040;-67
2024/01/10 04:34:50;;;;;;;38.55;29.05;;;-4.90;99.90;;;;;;5071124;28;20389;-67
2024/01/10 04:37:16;;;;;;;38.22;29.40;;;-4.80;99.90;;;;;;5070578;28;20036;-68
2024/01/10 04:39:42;;;;;;;38.42;28.17;;;-4.80;99.90;;;;;;5074357;28;20094;-67
2024/01/10 04:42:10;;;;;;;35.15;27.80;;;-4.90;99.90;;;;;;5075307;28;20044;-67
2024/01/10 04:44:36;;;;;;;36.10;28.15;;;-4.80;99.90;;;;;;5074260;28;20469;-69
2024/01/10 04:47:02;;;;;;;39.20;30.50;;;-4.50;99.90;;;;;;5071218;28;20102;-69
2024/01/10 04:49:28;;;;;;;38.15;27.55;;;-4.80;99.90;;;;;;5062119;28;20429;-67
2024/01/10 04:51:54;;;;;;;37.58;28.92;;;-4.90;99.90;;;;;;5060238;28;20057;-67
2024/01/10 04:54:20;;;;;;;38.33;28.35;;;-4.90;99.90;;;;;;5055043;28;20039;-67
2024/01/10 04:56:46;;;;;;;38.03;28.42;;;-4.90;99.90;;;;;;5065171;28;20044;-67
2024/01/10 04:59:11;;;;;;;41.17;29.15;;;-4.70;99.90;;;;;;5056280;28;20047;-67
2024/01/10 05:01:37;;;;;;;38.45;28.42;;;-4.90;99.90;;;;;;5060383;28;20083;-67
2024/01/10 05:04:03;;;;;;;36.17;27.88;;;-4.90;99.90;;;;;;5054647;28;20041;-67
2024/01/10 05:06:29;;;;;;;39.08;29.50;;;-4.90;99.90;;;;;;5054894;28;20036;-67
2024/01/10 05:08:58;;;;;;;40.00;29.25;;;-4.90;99.90;;;;;;5046954;28;20080;-67
2024/01/10 05:11:25;;;;;;;39.45;29.25;;;-4.90;99.90;;;;;;5061107;28;20037;-67
2024/01/10 05:13:51;;;;;;;37.25;28.17;;;-4.80;99.90;;;;;;5056086;28;20552;-67
2024/01/10 05:16:17;;;;;;;45.63;29.58;;;-4.80;99.90;;;;;;5036735;28;20048;-67
2024/01/10 05:18:43;;;;;;;36.80;28.10;;;-4.30;99.90;;;;;;5054117;28;20083;-67
2024/01/10 05:21:09;;;;;;;36.90;28.75;;;-4.60;99.90;;;;;;5063472;28;20355;-67
2024/01/10 05:23:35;;;;;;;36.97;27.52;;;-4.90;99.90;;;;;;5073219;28;20116;-71
2024/01/10 05:26:01;;;;;;;34.47;27.35;;;-4.90;99.90;;;;;;5072989;28;20056;-67
2024/01/10 05:28:26;;;;;;;38.85;28.98;;;-4.90;99.90;;;;;;5073306;28;20055;-67
2024/01/10 05:30:53;;;;;;;36.40;27.77;;;-4.70;99.90;;;;;;5055211;28;20040;-67
2024/01/10 05:33:20;;;;;;;39.38;28.00;;;-4.90;99.90;;;;;;5073829;28;20080;-67
2024/01/10 05:35:45;;;;;;;37.97;28.48;;;-4.90;99.90;;;;;;5073211;28;20044;-67
2024/01/10 05:38:11;;;;;;;37.80;28.83;;;-4.90;99.90;;;;;;5074062;28;20040;-68
2024/01/10 05:40:37;;;;;;;36.45;27.08;;;-4.90;99.90;;;;;;5074039;28;20055;-70
2024/01/10 05:43:02;;;;;;;36.28;27.73;;;-4.90;99.90;;;;;;5072161;28;20078;-67
2024/01/10 05:45:28;;;;;;;37.03;28.33;;;-4.90;99.90;;;;;;5070954;28;20037;-67
2024/01/10 05:47:54;;;;;;;34.17;27.83;;;-4.90;99.90;;;;;;5072622;28;20033;-68
2024/01/10 05:50:20;;;;;;;34.22;27.33;;;-4.90;99.90;;;;;;5055923;28;20131;-68
2024/01/10 05:52:46;;;;;;;36.17;27.52;;;-4.90;99.90;;;;;;5067875;28;20115;-68
2024/01/10 05:55:12;;;;;;;36.75;27.17;;;-4.90;99.90;;;;;;5054501;28;20362;-68
2024/01/10 05:57:38;;;;;;;38.40;28.40;;;-4.90;99.90;;;;;;5053748;28;20036;-66
2024/01/10 06:00:09;;;;;;;37.33;28.63;;;-4.80;99.90;;;;;;5056375;28;20108;-68
2024/01/10 06:02:38;;;;;;;36.50;28.02;;;-4.90;99.90;;;;;;5054229;28;20049;-67
2024/01/10 06:05:06;;;;;;;34.42;27.58;;;-4.90;99.90;;;;;;5057915;28;20063;-67
2024/01/10 06:07:32;;;;;;;38.13;29.05;;;-4.90;99.90;;;;;;5053537;28;20041;-66
2024/01/10 06:09:57;;;;;;;36.72;27.13;;;-4.90;99.90;;;;;;5052986;28;20045;-68
2024/01/10 06:12:23;;;;;;;42.33;31.08;;;-5.00;99.90;;;;;;5065263;28;20124;-67
2024/01/10 06:14:49;;;;;;;40.45;29.55;;;-4.70;99.90;;;;;;5052660;28;20037;-67
2024/01/10 06:17:15;;;;;;;41.45;31.42;;;-4.60;99.90;;;;;;5052811;28;20044;-67
2024/01/10 06:19:41;;;;;;;37.88;28.63;;;-5.10;99.90;;;;;;5053184;28;20045;-66
2024/01/10 06:22:07;;;;;;;42.13;31.67;;;-5.10;99.90;;;;;;5067715;28;20052;-67
2024/01/10 06:24:32;;;;;;;39.78;30.58;;;-5.10;99.90;;;;;;5071109;28;20127;-67
2024/01/10 06:26:59;;;;;;;41.58;31.13;;;-5.10;99.90;;;;;;5072796;28;20037;-67
2024/01/10 06:29:24;;;;;;;41.30;30.88;;;-5.10;99.90;;;;;;5068036;28;20045;-67
2024/01/10 06:31:50;;;;;;;43.90;34.38;;;-5.10;99.90;;;;;;5068672;28;20124;-67
2024/01/10 06:34:16;;;;;;;43.03;32.60;;;-5.10;99.90;;;;;;5054454;28;20056;-67
2024/01/10 06:36:41;;;;;;;40.95;31.15;;;-5.10;99.90;;;;;;5066336;28;20050;-66
2024/01/10 06:39:12;;;;;;;43.88;32.92;;;-5.00;99.90;;;;;;5040465;28;20051;-67
2024/01/10 06:41:38;;;;;;;43.83;31.48;;;-5.00;99.90;;;;;;5056841;28;20041;-67
2024/01/10 06:44:04;;;;;;;43.45;32.65;;;-4.30;99.90;;;;;;5057012;28;20115;-67
2024/01/10 06:46:31;;;;;;;42.92;32.38;;;-5.00;99.90;;;;;;5060311;28;20121;-67
2024/01/10 06:48:59;;;;;;;44.17;32.50;;;-5.00;99.90;;;;;;5053427;28;20083;-69
2024/01/10 06:51:26;;;;;;;38.97;30.48;;;-4.90;99.90;;;;;;5059010;28;20051;-69
2024/01/10 06:53:52;;;;;;;39.13;30.40;;;-4.90;99.90;;;;;;5052218;28;20041;-69
2024/01/10 06:56:18;;;;;;;40.70;29.67;;;-4.90;99.90;;;;;;5057108;28;20040;-71
2024/01/10 06:58:44;;;;;;;42.95;30.63;;;-4.90;99.90;;;;;;5052378;28;20382;-69
2024/01/10 07:01:13;;;;;;;40.88;30.02;;;-4.50;99.90;;;;;;5056871;28;20057;-68
2024/01/10 07:03:40;;;;;;;41.22;30.90;;;-4.80;99.90;;;;;;5052604;28;20134;-68
2024/01/10 07:06:05;;;;;;;38.95;29.83;;;-4.70;99.90;;;;;;5062327;28;20053;-69
2024/01/10 07:08:31;;;;;;;40.53;28.48;;;-4.80;99.90;;;;;;5070565;28;20088;-69
2024/01/10 07:10:57;;;;;;;40.83;30.70;;;-4.80;99.90;;;;;;5071292;28;20048;-69
2024/01/10 07:13:23;;;;;;;38.83;29.13;;;-4.80;99.90;;;;;;5071066;28;20043;-70
2024/01/10 07:15:52;;;;;;;38.33;29.38;;;-4.80;99.90;;;;;;5054110;28;20051;-69
2024/01/10 07:18:18;;;;;;;38.55;30.08;;;-4.80;99.90;;;;;;5053609;28;20478;-67
2024/01/10 07:20:44;;;;;;;43.72;32.45;;;-4.80;99.90;;;;;;5058423;28;20048;-68
2024/01/10 07:23:10;;;;;;;41.25;30.05;;;-4.80;99.90;;;;;;5071703;28;20075;-69
2024/01/10 07:25:37;;;;;;;40.42;30.25;;;-4.00;99.90;;;;;;5070429;28;20474;-69
2024/01/10 07:28:03;;;;;;;40.25;30.00;;;-4.90;99.90;;;;;;5071173;28;20037;-69
2024/01/10 07:30:32;;;;;;;38.40;29.48;;;-4.90;99.90;;;;;;5068241;28;20122;-69
2024/01/10 07:32:58;;;;;;;36.75;28.88;;;-4.90;99.90;;;;;;5056210;28;20156;-69
2024/01/10 07:35:24;;;;;;;38.10;29.38;;;-4.90;99.90;;;;;;5071052;28;20119;-68
2024/01/10 07:37:49;;;;;;;38.08;29.40;;;-4.90;99.90;;;;;;5070573;28;20028;-69
2024/01/10 07:40:15;;;;;;;40.67;30.15;;;-4.90;99.90;;;;;;5071084;28;20047;-69
2024/01/10 07:42:43;;;;;;;38.85;29.83;;;-4.90;99.90;;;;;;5071962;28;20051;-69
2024/01/10 07:45:09;;;;;;;37.72;28.65;;;-4.90;99.90;;;;;;5065008;28;20043;-70
2024/01/10 07:47:38;;;;;;;38.38;29.85;;;-4.90;99.90;;;;;;5070908;28;20110;-70
2024/01/10 07:50:06;;;;;;;39.60;30.05;;;-4.90;99.90;;;;;;5071065;28;20343;-70
2024/01/10 07:52:32;;;;;;;37.80;27.70;;;-4.90;99.90;;;;;;5071821;28;20055;-69
2024/01/10 07:54:58;;;;;;;41.28;30.05;;;-4.90;99.90;;;;;;5070629;28;20044;-70
2024/01/10 07:57:24;;;;;;;44.72;34.20;;;-5.00;99.90;;;;;;5068951;28;20101;-69
2024/01/10 07:59:49;;;;;;;41.53;31.48;;;-5.00;99.90;;;;;;5061494;28;20044;-70
2024/01/10 08:02:16;;;;;;;39.70;29.40;;;-5.00;99.90;;;;;;5064898;28;20040;-70
2024/01/10 08:04:42;;;;;;;40.53;29.42;;;-5.00;99.90;;;;;;5063314;28;20037;-70
2024/01/10 08:07:08;;;;;;;39.30;28.48;;;-5.00;99.90;;;;;;5050724;28;20150;-69
2024/01/10 08:09:34;;;;;;;39.85;29.05;;;-5.00;99.90;;;;;;5055446;28;20041;-69
2024/01/10 08:12:00;;;;;;;40.13;28.38;;;-5.00;99.90;;;;;;5058238;28;20050;-70
2024/01/10 08:14:26;;;;;;;39.20;28.48;;;-5.00;99.90;;;;;;5055832;28;20048;-70
2024/01/10 08:16:58;;;;;;;38.67;26.02;;;-4.90;99.90;;;;;;5050854;28;20044;-70
2024/01/10 08:19:29;;;;;;;40.53;27.58;;;-4.90;99.90;;;;;;5055478;28;20127;-69
2024/01/10 08:21:56;;;;;;;40.45;27.83;;;-4.90;99.90;;;;;;5071463;28;20087;-70
2024/01/10 08:24:22;;;;;;;39.15;25.15;;;-4.10;99.90;;;;;;5068841;28;20072;-70
2024/01/10 08:26:57;;;;;;;38.88;26.60;;;-4.80;99.90;;;;;;5071178;28;20145;-70
2024/01/10 08:29:25;;;;;;;38.22;26.15;;;-4.80;99.90;;;;;;5070122;28;20483;-70
2024/01/10 08:31:50;;;;;;;42.90;25.40;;;-4.80;99.90;;;;;;5068420;28;20086;-70
2024/01/10 08:34:18;;;;;;;42.67;24.48;;;-4.70;99.90;;;;;;5069056;28;20081;-70
2024/01/10 08:36:43;;;;;;;41.88;24.70;;;-4.70;99.90;;;;;;5065799;28;20040;-69
2024/01/10 08:39:11;;;;;;;46.85;27.80;;;-4.70;99.90;;;;;;5062095;28;20094;-71
2024/01/10 08:41:42;;;;;;;43.97;27.02;;;-4.70;99.90;;;;;;5058320;28;20390;-70
2024/01/10 08:44:08;;;;;;;46.45;26.75;;;-4.70;99.90;;;;;;5050533;28;20040;-72
2024/01/10 08:46:34;;;;;;;44.25;26.98;;;-4.70;99.90;;;;;;5049531;28;20059;-69
2024/01/10 08:48:59;;;;;;;46.22;26.55;;;-4.70;99.90;;;;;;5057408;28;20136;-69
2024/01/10 08:51:25;;;;;;;44.60;26.67;;;-4.60;99.90;;;;;;5067436;28;20049;-69
2024/01/10 08:53:51;;;;;;;44.08;24.13;;;-4.60;99.90;;;;;;5068389;28;20116;-69
2024/01/10 08:56:17;;;;;;;47.65;25.95;;;-4.60;99.90;;;;;;5069199;28;20063;-69
2024/01/10 08:58:42;;;;;;;46.20;26.65;;;-4.60;99.90;;;;;;5069898;28;20033;-69
2024/01/10 09:01:08;;;;;;;44.40;25.55;;;-4.50;99.90;;;;;;5069160;28;20091;-70
2024/01/10 09:03:34;;;;;;;42.50;24.25;;;-4.50;99.90;;;;;;5069915;28;20102;-70
2024/01/10 09:06:00;;;;;;;43.13;25.10;;;-4.50;99.90;;;;;;5071219;28;20047;-70
2024/01/10 09:08:25;;;;;;;37.95;22.60;;;-4.50;99.90;;;;;;5070447;28;20470;-70
2024/01/10 09:10:51;;;;;;;41.97;24.33;;;-4.40;99.90;;;;;;5052143;28;20135;-70
2024/01/10 09:13:17;;;;;;;46.03;24.90;;;-4.40;99.90;;;;;;5057289;28;20130;-70
2024/01/10 09:15:43;;;;;;;42.10;24.33;;;-4.40;99.90;;;;;;5065187;28;20052;-70
2024/01/10 09:18:08;;;;;;;37.60;22.38;;;-4.40;99.90;;;;;;5053263;28;20135;-70
2024/01/10 09:20:35;;;;;;;38.60;23.00;;;-4.30;99.90;;;;;;5049105;28;20863;-69
2024/01/10 09:23:02;;;;;;;39.83;21.17;;;-4.30;99.90;;;;;;5058984;28;20037;-69
2024/01/10 09:25:28;;;;;;;36.50;21.48;;;-4.20;99.90;;;;;;5068796;28;20136;-70
2024/01/10 09:27:54;;;;;;;38.35;22.40;;;-4.20;99.90;;;;;;5050416;28;20127;-69
2024/01/10 09:30:20;;;;;;;38.20;19.92;;;-4.10;99.90;;;;;;5062847;28;20033;-70
2024/01/10 09:32:46;;;;;;;37.20;20.02;;;-4.00;99.90;;;;;;5062710;28;20036;-70
2024/01/10 09:35:13;;;;;;;34.72;19.08;;;-4.00;99.90;;;;;;5057872;28;20492;-69
2024/01/10 09:37:39;;;;;;;35.00;20.42;;;-4.00;99.90;;;;;;5056500;28;20084;-69
2024/01/10 09:40:08;;;;;;;35.20;19.85;;;-3.90;99.90;;;;;;5062145;28;20048;-71
2024/01/10 09:42:36;;;;;;;33.67;18.63;;;-3.90;99.90;;;;;;5062995;28;20397;-70
2024/01/10 09:45:04;;;;;;;32.63;19.75;;;-3.80;99.90;;;;;;5077730;28;20383;-71
2024/01/10 09:47:32;;;;;;;35.33;20.08;;;-3.80;99.90;;;;;;5068658;28;20131;-69
2024/01/10 09:49:58;;;;;;;33.40;18.52;;;-3.80;99.90;;;;;;5070466;28;20052;-69
2024/01/10 09:52:25;;;;;;;33.67;19.92;;;-3.70;99.90;;;;;;5061175;28;20049;-69
2024/01/10 09:54:56;;;;;;;35.30;19.52;;;-3.70;99.90;;;;;;5059467;28;20072;-67
2024/01/10 09:57:23;;;;;;;35.80;19.77;;;-3.60;99.90;;;;;;5057281;28;20415;-69
2024/01/10 09:59:56;;;;;;;32.15;18.90;;;-3.60;99.90;;;;;;5056149;28;20052;-69
2024/01/10 10:02:23;;;;;;;33.08;20.13;;;-3.50;99.90;;;;;;5060544;28;20041;-69
2024/01/10 10:05:05;;;;;;;31.73;18.52;;;-3.40;99.90;;;;;;5054551;28;20390;-70
2024/01/10 10:07:42;;;;;;;33.20;18.92;;;-3.40;99.90;;;;;;5053249;28;20060;-69
2024/01/10 10:10:08;;;;;;;31.20;17.63;;;-3.30;99.90;;;;;;5064183;28;20044;-72
2024/01/10 10:12:52;;;;;;;29.95;17.48;;;-2.70;99.90;;;;;;5054134;28;20119;-71
2024/01/10 10:15:21;;;;;;;30.85;17.33;;;-3.30;99.90;;;;;;5058789;28;20037;-70
2024/01/10 10:17:48;;;;;;;28.92;17.25;;;-2.60;99.90;;;;;;5058005;28;20048;-70
2024/01/10 10:20:20;;;;;;;29.55;18.27;;;-3.10;99.90;;;;;;5055205;28;20478;-70
2024/01/10 10:23:06;;;;;;;27.02;15.43;;;-3.10;99.90;;;;;;5059042;28;20117;-70
2024/01/10 10:25:37;;;;;;;29.20;16.40;;;-3.00;99.90;;;;;;5071513;28;20050;-70
2024/01/10 10:28:04;;;;;;;26.75;15.77;;;-3.00;99.90;;;;;;5061926;28;20033;-70
2024/01/10 10:30:33;;;;;;;26.27;16.08;;;-2.90;99.90;;;;;;5060798;28;20105;-72
2024/01/10 10:32:59;;;;;;;29.10;17.35;;;-2.90;99.90;;;;;;5057438;28;20386;-70
2024/01/10 10:35:25;;;;;;;28.45;16.52;;;-2.70;99.90;;;;;;5065287;28;20040;-74
2024/01/10 10:37:52;;;;;;;30.92;16.42;;;-2.80;99.90;;;;;;5054654;28;20314;-70
2024/01/10 10:40:19;;;;;;;26.05;15.68;;;-2.70;99.90;;;;;;5053984;28;20045;-70
2024/01/10 10:42:55;;;;;;;24.00;14.82;;;-2.70;99.90;;;;;;5057724;28;20835;-70
2024/01/10 10:45:26;;;;;;;21.58;13.75;;;-2.60;99.90;;;;;;5059664;28;20041;-69
2024/01/10 10:47:57;;;;;;;24.90;14.68;;;-2.60;99.90;;;;;;5052686;28;20489;-69
2024/01/10 10:50:25;;;;;;;23.08;12.98;;;-2.50;99.90;;;;;;5054317;28;20377;-69
2024/01/10 10:52:51;;;;;;;20.58;13.07;;;-2.40;99.90;;;;;;5060943;28;20044;-68
2024/01/10 10:55:18;;;;;;;21.23;13.55;;;-2.40;99.90;;;;;;5060400;28;20049;-68
2024/01/10 10:57:46;;;;;;;21.35;12.57;;;-2.40;99.90;;;;;;5058751;28;20039;-68
2024/01/10 11:00:19;;;;;;;24.58;13.88;;;-2.00;99.90;;;;;;5064496;28;20047;-68
2024/01/10 11:02:46;;;;;;;21.65;12.77;;;-2.20;99.90;;;;;;5067523;28;20037;-68
2024/01/10 11:05:12;;;;;;;20.23;12.25;;;-1.70;99.90;;;;;;5064309;28;20044;-67
2024/01/10 11:07:46;;;;;;;17.95;11.35;;;-2.20;99.90;;;;;;5052384;28;20033;-69
2024/01/10 11:10:17;;;;;;;18.33;11.27;;;-2.10;99.90;;;;;;5051639;28;20037;-69
2024/01/10 11:12:48;;;;;;;16.38;10.35;;;-2.10;99.90;;;;;;5085596;28;20087;-69
2024/01/10 11:15:32;;;;;;;15.55;9.85;;;-2.10;99.90;;;;;;5066598;28;20037;-69
2024/01/10 11:18:18;;;;;;;16.27;10.10;;;-2.00;99.90;;;;;;5051913;28;20052;-69
2024/01/10 11:21:05;;;;;;;16.30;9.77;;;-2.00;99.90;;;;;;5057716;28;20036;-69
2024/01/10 11:23:55;;;;;;;14.85;9.45;;;-1.50;99.90;;;;;;5068320;28;20033;-69
2024/01/10 11:26:21;;;;;;;12.85;7.78;;;-1.80;99.90;;;;;;5052286;28;20037;-68
2024/01/10 11:28:48;;;;;;;19.88;10.80;;;-1.90;99.90;;;;;;5052547;28;20115;-69
2024/01/10 11:31:15;;;;;;;16.08;10.20;;;-1.80;99.90;;;;;;5059431;28;20172;-71
2024/01/10 11:33:43;;;;;;;15.65;10.48;;;-1.10;99.90;;;;;;5041039;28;20048;-70
2024/01/10 11:36:19;;;;;;;18.13;11.55;;;-1.80;99.90;;;;;;5056016;28;20048;-70
2024/01/10 11:38:53;;;;;;;16.05;10.63;;;-1.70;99.90;;;;;;5053068;28;20035;-69
2024/01/10 11:41:24;;;;;;;16.50;9.30;;;-1.70;99.90;;;;;;5056330;28;20045;-70
2024/01/10 11:44:11;;;;;;;18.80;10.77;;;-1.60;99.90;;;;;;5051961;28;20468;-70
2024/01/10 11:46:46;;;;;;;16.40;9.98;;;-1.60;99.90;;;;;;5056637;28;20124;-74
2024/01/10 11:49:19;;;;;;;14.85;9.32;;;-1.60;99.90;;;;;;5051930;28;20383;-70
2024/01/10 11:51:49;;;;;;;16.02;9.98;;;-1.60;99.90;;;;;;5055180;28;20485;-70
2024/01/10 11:54:38;;;;;;;16.60;10.23;;;-1.60;99.90;;;;;;5054862;28;20045;-68
2024/01/10 11:57:34;;;;;;;17.35;10.77;;;-1.50;99.90;;;;;;5050303;28;20065;-67
2024/01/10 12:00:00;;;;;;;17.05;10.07;;;-1.50;99.90;;;;;;5054428;28;20057;-66
2024/01/10 12:02:27;;;;;;;15.18;9.63;;;-1.30;99.90;;;;;;5057058;28;20037;-68
2024/01/10 12:04:54;;;;;;;17.05;10.00;;;-1.40;99.90;;;;;;5052001;28;20048;-69
2024/01/10 12:07:21;;;;;;;17.52;10.80;;;-1.40;99.90;;;;;;5062310;28;20040;-68
2024/01/10 12:09:47;;;;;;;15.63;9.65;;;-1.40;99.90;;;;;;5059362;28;20040;-68
2024/01/10 12:12:14;;;;;;;16.95;10.93;;;-0.60;99.90;;;;;;5055948;28;20049;-69
2024/01/10 12:14:40;;;;;;;16.70;10.75;;;-1.30;99.90;;;;;;5052145;28;20041;-76
2024/01/10 12:17:08;;;;;;;17.10;10.13;;;-0.50;99.90;;;;;;5060294;28;20470;-68
2024/01/10 12:19:36;;;;;;;15.75;9.27;;;-0.70;99.90;;;;;;5053855;28;20053;-69
2024/01/10 12:22:04;;;;;;;17.25;10.27;;;-1.20;99.90;;;;;;5070993;28;20063;-69
2024/01/10 12:24:30;;;;;;;14.70;9.32;;;-1.20;99.90;;;;;;5069969;28;20120;-69
2024/01/10 12:26:56;;;;;;;16.75;9.88;;;-1.20;99.90;;;;;;5070725;28;20040;-69
2024/01/10 12:29:22;;;;;;;15.68;10.07;;;-1.20;99.90;;;;;;5071288;28;20044;-69